Time;durP1;ratioP1;P1;durP2;ratioP2;P2;SDS_P1;SDS_P2;PMS_P1;PMS_P2;Temp;Humidity;BMP_temperature;BMP_pressure;BME280_temperature;BME280_humidity;BME280_pressure;Samples;Min_cycle;Max_cycle;Signal;HPM_P1;HPM_P2
2021/12/06 00:01:15;;;;;;;38.78;22.35;;;2.00;99.90;;;;;;5048787;28;20044;-56
2021/12/06 00:03:45;;;;;;;31.88;18.65;;;;;;;;;;5044453;28;20033;-56
2021/12/06 00:06:11;;;;;;;30.15;19.42;;;;;;;;;;5058473;28;20037;-58
2021/12/06 00:08:37;;;;;;;30.77;19.70;;;2.00;99.90;;;;;;5052171;28;20517;-55
2021/12/06 00:11:11;;;;;;;32.03;18.70;;;2.30;99.90;;;;;;5046223;28;20033;-58
2021/12/06 00:13:41;;;;;;;33.53;19.50;;;;;;;;;;5052633;28;20039;-60
2021/12/06 00:16:20;;;;;;;31.00;19.63;;;;;;;;;;5047165;28;20534;-59
2021/12/06 00:18:47;;;;;;;27.55;17.80;;;;;;;;;;5042617;28;20123;-58
2021/12/06 00:21:13;;;;;;;28.55;17.02;;;;;;;;;;5076607;22;20056;-58
2021/12/06 00:23:43;;;;;;;27.73;17.02;;;;;;;;;;5067024;28;20032;-59
2021/12/06 00:26:10;;;;;;;26.73;17.05;;;1.90;99.90;;;;;;5065261;28;20064;-58
2021/12/06 00:28:36;;;;;;;32.38;19.23;;;;;;;;;;5061090;28;20056;-58
2021/12/06 00:31:03;;;;;;;29.95;18.63;;;;;;;;;;5067039;28;20036;-58
2021/12/06 00:33:30;;;;;;;29.48;18.58;;;;;;;;;;5070359;28;20041;-56
2021/12/06 00:36:02;;;;;;;31.38;18.40;;;;;;;;;;5062884;28;20048;-58
2021/12/06 00:38:31;;;;;;;34.50;20.48;;;1.30;99.90;;;;;;5067332;28;20098;-58
2021/12/06 00:40:58;;;;;;;31.45;19.85;;;;;;;;;;5071929;28;20127;-54
2021/12/06 00:43:24;;;;;;;39.15;22.17;;;;;;;;;;5071004;28;20120;-58
2021/12/06 00:45:50;;;;;;;32.63;18.77;;;1.90;99.90;;;;;;5064019;28;20041;-58
2021/12/06 00:48:16;;;;;;;35.22;21.58;;;2.10;99.90;;;;;;5062948;28;20098;-58
2021/12/06 00:50:43;;;;;;;32.22;21.08;;;;;;;;;;5072082;28;20040;-56
2021/12/06 00:53:09;;;;;;;38.78;21.15;;;;;;;;;;5057581;28;20084;-57
2021/12/06 00:55:35;;;;;;;32.13;19.60;;;;;;;;;;5067827;28;20455;-58
2021/12/06 00:58:01;;;;;;;37.65;21.02;;;;;;;;;;5066147;28;20069;-56
2021/12/06 01:00:30;;;;;;;37.13;20.75;;;1.60;99.90;;;;;;5065054;28;20032;-56
2021/12/06 01:02:56;;;;;;;38.00;22.10;;;;;;;;;;5068262;28;20044;-54
2021/12/06 01:05:26;;;;;;;41.83;24.33;;;;;;;;;;5062449;28;20032;-58
2021/12/06 01:07:55;;;;;;;40.20;22.35;;;;;;;;;;5072105;28;20043;-58
2021/12/06 01:10:22;;;;;;;37.00;23.30;;;;;;;;;;5062673;28;20036;-58
2021/12/06 01:12:51;;;;;;;43.15;23.17;;;;;;;;;;5071881;28;20051;-57
2021/12/06 01:15:17;;;;;;;40.53;22.65;;;2.00;99.90;;;;;;5065327;28;20203;-57
2021/12/06 01:17:46;;;;;;;42.88;24.50;;;2.20;99.90;;;;;;5061308;28;20040;-58
2021/12/06 01:20:18;;;;;;;42.88;24.60;;;;;;;;;;5071376;28;20505;-58
2021/12/06 01:22:51;;;;;;;42.75;24.52;;;;;;;;;;5067229;28;20053;-56
2021/12/06 01:25:35;;;;;;;37.33;22.60;;;;;;;;;;5063379;28;20167;-58
2021/12/06 01:28:35;;;;;;;35.28;20.88;;;;;;;;;;5068842;28;20052;-58
2021/12/06 01:31:13;;;;;;;36.58;21.23;;;;;;;;;;5062344;28;20048;-59
2021/12/06 01:39:17;;;;;;;38.58;23.10;;;2.40;99.90;;;;;;5066996;28;20052;-57
2021/12/06 01:41:48;;;;;;;48.13;24.75;;;;;;;;;;5066901;28;20037;-58
2021/12/06 01:44:19;;;;;;;42.38;23.65;;;;;;;;;;5070503;28;20059;-58
2021/12/06 01:46:49;;;;;;;45.83;26.02;;;3.20;99.90;;;;;;5060719;28;20045;-58
2021/12/06 01:49:17;;;;;;;42.15;23.08;;;2.80;99.90;;;;;;5062092;28;20094;-57
2021/12/06 01:51:46;;;;;;;43.38;23.70;;;2.50;99.90;;;;;;5062954;28;20028;-55
2021/12/06 01:54:13;;;;;;;40.97;21.45;;;2.40;99.90;;;;;;5070101;28;20079;-58
2021/12/06 01:56:39;;;;;;;38.40;22.85;;;;;;;;;;5068651;28;20036;-57
2021/12/06 01:59:08;;;;;;;35.38;21.48;;;;;;;;;;5066909;28;20044;-58
2021/12/06 02:01:35;;;;;;;40.58;21.50;;;2.70;99.90;;;;;;5068972;28;20032;-57
2021/12/06 02:04:01;;;;;;;37.10;21.17;;;;;;;;;;5049157;28;20146;-58
2021/12/06 02:06:27;;;;;;;30.15;18.08;;;2.60;99.90;;;;;;5069131;28;20644;-58
2021/12/06 02:08:56;;;;;;;28.58;17.35;;;;;;;;;;5064826;28;20047;-58
2021/12/06 02:11:27;;;;;;;32.78;19.85;;;;;;;;;;5061918;28;20598;-58
2021/12/06 02:14:19;;;;;;;36.10;21.30;;;2.70;99.90;;;;;;5070174;28;20526;-57
2021/12/06 02:20:00;;;;;;;36.85;21.10;;;3.50;99.90;;;;;;5037620;28;20044;-58
2021/12/06 02:22:31;;;;;;;32.28;18.50;;;;;;;;;;5049280;28;20045;-56
2021/12/06 02:24:57;;;;;;;37.40;21.65;;;;;;;;;;5065404;28;20063;-57
2021/12/06 02:27:25;;;;;;;39.28;20.33;;;;;;;;;;5070604;28;20054;-57
2021/12/06 02:29:52;;;;;;;30.30;17.42;;;;;;;;;;5066353;28;20652;-58
2021/12/06 02:32:18;;;;;;;38.40;20.35;;;;;;;;;;5061935;28;20195;-58
2021/12/06 02:34:50;;;;;;;33.80;18.92;;;2.70;99.90;;;;;;5061332;28;20052;-58
2021/12/06 02:37:19;;;;;;;39.08;20.05;;;2.50;99.90;;;;;;5069225;28;20530;-58
2021/12/06 02:39:47;;;;;;;42.20;23.20;;;3.10;99.90;;;;;;5064540;28;20514;-59
2021/12/06 02:42:16;;;;;;;36.33;20.17;;;2.70;99.90;;;;;;5064440;28;20101;-57
2021/12/06 02:44:42;;;;;;;35.95;19.88;;;;;;;;;;5065754;28;20040;-57
2021/12/06 02:47:08;;;;;;;40.10;22.35;;;;;;;;;;5070177;28;20494;-59
2021/12/06 02:49:38;;;;;;;36.20;21.05;;;;;;;;;;5066440;28;20036;-57
2021/12/06 02:52:07;;;;;;;42.70;23.92;;;;;;;;;;5069996;28;20064;-57
2021/12/06 02:54:34;;;;;;;37.05;22.15;;;;;;;;;;5064349;28;20139;-57
2021/12/06 02:59:39;;;;;;;40.95;23.00;;;;;;;;;;5056840;28;20109;-56
2021/12/06 03:02:07;;;;;;;41.03;22.95;;;;;;;;;;5069288;28;20060;-57
2021/12/06 03:04:34;;;;;;;40.95;22.85;;;;;;;;;;5066809;28;20035;-56
2021/12/06 03:07:01;;;;;;;41.67;23.50;;;;;;;;;;5069675;28;20462;-57
2021/12/06 03:09:29;;;;;;;41.00;24.02;;;;;;;;;;5066915;28;20094;-57
2021/12/06 03:12:01;;;;;;;40.10;22.98;;;2.70;99.90;;;;;;5063962;28;20505;-58
2021/12/06 03:14:38;;;;;;;59.92;27.60;;;;;;;;;;5061359;28;20044;-58
2021/12/06 03:17:09;;;;;;;42.92;22.52;;;;;;;;;;5057990;28;20033;-57
2021/12/06 03:19:35;;;;;;;44.85;22.77;;;;;;;;;;5064726;28;20043;-58
2021/12/06 03:22:01;;;;;;;47.25;25.17;;;;;;;;;;5070630;28;20403;-57
2021/12/06 03:24:28;;;;;;;49.03;26.25;;;;;;;;;;5069035;28;20485;-58
2021/12/06 03:26:54;;;;;;;42.50;24.13;;;;;;;;;;5072884;28;20411;-58
2021/12/06 03:29:20;;;;;;;57.70;28.30;;;;;;;;;;5073178;28;20128;-57
2021/12/06 03:31:47;;;;;;;45.25;25.38;;;2.70;99.90;;;;;;5070296;28;20098;-57
2021/12/06 03:34:17;;;;;;;46.15;25.65;;;2.90;99.90;;;;;;5071359;28;20040;-57
2021/12/06 03:36:47;;;;;;;42.90;24.17;;;2.90;99.90;;;;;;5072159;28;20049;-57
2021/12/06 03:39:23;;;;;;;42.80;24.33;;;;;;;;;;5068037;28;20111;-58
2021/12/06 03:41:50;;;;;;;47.40;26.25;;;;;;;;;;5052316;28;20105;-58
2021/12/06 03:44:16;;;;;;;48.13;25.05;;;;;;;;;;5073297;28;20036;-58
2021/12/06 03:46:43;;;;;;;45.97;25.98;;;;;;;;;;5057039;28;20036;-57
2021/12/06 03:49:13;;;;;;;45.92;24.65;;;;;;;;;;5072509;28;20047;-58
2021/12/06 03:51:39;;;;;;;41.15;21.40;;;;;;;;;;5055116;28;20036;-58
2021/12/06 03:54:06;;;;;;;40.15;21.90;;;3.00;99.90;;;;;;5069548;28;20120;-58
2021/12/06 03:56:32;;;;;;;45.13;23.80;;;;;;;;;;5073211;28;20394;-58
2021/12/06 03:58:58;;;;;;;51.15;23.70;;;3.10;99.90;;;;;;5064436;28;20040;-58
2021/12/06 04:01:24;;;;;;;50.47;24.95;;;;;;;;;;5068541;28;20032;-57
2021/12/06 04:03:50;;;;;;;58.60;29.13;;;;;;;;;;5068813;28;20055;-56
2021/12/06 04:06:16;;;;;;;51.63;26.50;;;3.40;99.90;;;;;;5071078;28;20036;-55
2021/12/06 04:08:42;;;;;;;51.13;26.80;;;;;;;;;;5072493;28;20028;-56
2021/12/06 04:11:08;;;;;;;47.80;25.17;;;;;;;;;;5069554;28;20037;-57
2021/12/06 04:13:34;;;;;;;48.40;25.63;;;;;;;;;;5073176;28;20049;-56
2021/12/06 04:16:00;;;;;;;54.95;26.88;;;;;;;;;;5070553;28;20041;-54
2021/12/06 04:18:27;;;;;;;47.35;24.50;;;;;;;;;;5065274;28;20119;-58
2021/12/06 04:20:53;;;;;;;53.70;26.33;;;;;;;;;;5065025;28;20041;-56
2021/12/06 04:23:19;;;;;;;45.95;25.75;;;;;;;;;;5064624;28;20047;-58
2021/12/06 04:25:48;;;;;;;43.72;24.08;;;;;;;;;;5068908;28;20195;-56
2021/12/06 04:28:15;;;;;;;54.33;26.30;;;3.20;99.90;;;;;;5067565;28;20044;-57
2021/12/06 04:30:42;;;;;;;53.13;25.90;;;;;;;;;;5065762;28;20467;-58
2021/12/06 04:33:08;;;;;;;54.78;27.25;;;;;;;;;;5068690;28;20072;-58
2021/12/06 04:35:35;;;;;;;54.78;25.92;;;;;;;;;;5069862;28;20047;-57
2021/12/06 04:38:01;;;;;;;55.40;26.83;;;;;;;;;;5067281;28;20098;-57
2021/12/06 04:40:27;;;;;;;57.50;25.10;;;;;;;;;;5064466;28;20402;-57
2021/12/06 04:42:54;;;;;;;54.67;28.23;;;;;;;;;;5064201;28;20052;-57
2021/12/06 04:45:20;;;;;;;62.08;29.17;;;;;;;;;;5062714;28;20036;-58
2021/12/06 04:47:46;;;;;;;74.60;30.02;;;;;;;;;;5067571;28;20040;-57
2021/12/06 04:50:14;;;;;;;75.57;30.63;;;;;;;;;;5072781;28;20044;-57
2021/12/06 04:52:41;;;;;;;67.85;31.38;;;;;;;;;;5073159;28;20040;-54
2021/12/06 04:55:15;;;;;;;60.60;29.75;;;;;;;;;;5071267;28;20051;-55
2021/12/06 04:57:44;;;;;;;56.10;30.15;;;2.80;99.90;;;;;;5065814;28;20109;-54
2021/12/06 05:00:16;;;;;;;63.42;29.33;;;2.90;99.90;;;;;;5071779;28;20047;-57
2021/12/06 05:02:42;;;;;;;69.22;29.10;;;;;;;;;;5067236;28;20048;-56
2021/12/06 05:05:22;;;;;;;66.20;29.77;;;;;;;;;;5070486;28;20167;-57
2021/12/06 05:07:55;;;;;;;55.35;26.45;;;4.00;99.90;;;;;;5071551;28;20444;-54
2021/12/06 05:10:21;;;;;;;69.57;31.00;;;;;;;;;;5072272;28;20162;-57
2021/12/06 05:12:48;;;;;;;65.18;29.20;;;;;;;;;;5061139;28;20539;-55
2021/12/06 05:15:14;;;;;;;80.05;33.85;;;;;;;;;;5071810;28;20041;-57
2021/12/06 05:17:43;;;;;;;60.30;28.38;;;;;;;;;;5065966;28;20037;-58
2021/12/06 05:20:09;;;;;;;62.55;28.25;;;;;;;;;;5072485;28;20040;-57
2021/12/06 05:22:35;;;;;;;69.00;30.02;;;;;;;;;;5072463;28;20066;-57
2021/12/06 05:25:03;;;;;;;66.55;29.77;;;3.00;99.90;;;;;;5063546;28;20115;-56
2021/12/06 05:27:30;;;;;;;75.60;32.08;;;;;;;;;;5057235;28;20127;-57
2021/12/06 05:30:00;;;;;;;69.38;30.00;;;;;;;;;;5075459;28;20057;-55
2021/12/06 05:32:28;;;;;;;68.07;30.13;;;3.30;99.90;;;;;;5064636;28;20047;-55
2021/12/06 05:35:07;;;;;;;72.43;30.58;;;;;;;;;;5071404;28;20502;-55
2021/12/06 05:37:34;;;;;;;60.70;29.27;;;;;;;;;;5067833;28;20411;-58
2021/12/06 05:40:01;;;;;;;62.47;28.00;;;;;;;;;;5072554;28;20431;-57
2021/12/06 05:42:27;;;;;;;60.85;27.50;;;;;;;;;;5071286;28;20131;-57
2021/12/06 05:44:53;;;;;;;59.03;28.83;;;;;;;;;;5073399;28;20040;-57
2021/12/06 05:47:19;;;;;;;55.60;28.23;;;;;;;;;;5072238;28;20060;-56
2021/12/06 05:49:45;;;;;;;62.70;28.77;;;;;;;;;;5071421;28;20540;-56
2021/12/06 05:52:11;;;;;;;57.95;27.33;;;;;;;;;;5068159;28;20466;-57
2021/12/06 05:54:38;;;;;;;69.10;29.75;;;;;;;;;;5069728;28;20043;-57
2021/12/06 05:57:05;;;;;;;56.92;27.42;;;;;;;;;;5070890;28;20040;-57
2021/12/06 05:59:31;;;;;;;51.15;24.98;;;3.50;99.90;;;;;;5056847;28;20470;-56
2021/12/06 06:01:57;;;;;;;65.18;27.65;;;;;;;;;;5069683;28;20033;-57
2021/12/06 06:04:26;;;;;;;59.92;30.50;;;;;;;;;;5063570;28;20067;-56
2021/12/06 06:06:52;;;;;;;52.60;26.70;;;;;;;;;;5063580;28;20036;-58
2021/12/06 06:09:19;;;;;;;50.47;24.58;;;;;;;;;;5052939;28;20083;-56
2021/12/06 06:11:45;;;;;;;56.13;26.88;;;;;;;;;;5070652;28;20044;-56
2021/12/06 06:14:11;;;;;;;47.80;24.13;;;;;;;;;;5069507;28;20037;-58
2021/12/06 06:16:47;;;;;;;51.40;26.20;;;;;;;;;;5047114;28;20044;-58
2021/12/06 06:19:13;;;;;;;59.53;27.35;;;;;;;;;;5068437;28;20072;-57
2021/12/06 06:21:39;;;;;;;59.45;27.67;;;;;;;;;;5071363;28;20479;-57
2021/12/06 06:24:05;;;;;;;60.55;26.90;;;;;;;;;;5068542;28;20108;-57
2021/12/06 06:26:30;;;;;;;60.40;28.50;;;3.20;99.90;;;;;;5058979;28;20029;-57
2021/12/06 06:28:56;;;;;;;49.95;25.02;;;3.40;99.90;;;;;;5071345;28;20484;-57
2021/12/06 06:31:22;;;;;;;54.65;26.50;;;3.20;99.90;;;;;;5071456;28;20086;-57
2021/12/06 06:33:48;;;;;;;50.70;25.42;;;;;;;;;;5068332;28;20158;-57
2021/12/06 06:36:14;;;;;;;60.03;26.70;;;;;;;;;;5071100;28;20040;-57
2021/12/06 06:38:40;;;;;;;51.92;25.30;;;;;;;;;;5071374;28;20055;-56
2021/12/06 06:41:06;;;;;;;62.72;26.30;;;;;;;;;;5071140;28;20040;-57
2021/12/06 06:43:35;;;;;;;49.55;24.67;;;;;;;;;;5070640;28;20052;-58
2021/12/06 06:46:01;;;;;;;55.10;24.10;;;;;;;;;;5063329;28;20406;-58
2021/12/06 06:48:27;;;;;;;61.03;26.05;;;;;;;;;;5067650;28;20052;-58
2021/12/06 06:50:53;;;;;;;48.30;24.27;;;;;;;;;;5071163;28;20044;-58
2021/12/06 06:53:19;;;;;;;51.17;26.30;;;;;;;;;;5069847;28;20047;-56
2021/12/06 06:55:45;;;;;;;47.17;23.13;;;;;;;;;;5067876;28;20051;-57
2021/12/06 06:58:11;;;;;;;54.17;25.75;;;;;;;;;;5067800;28;20600;-57
2021/12/06 07:00:41;;;;;;;51.92;25.40;;;;;;;;;;5063970;28;20044;-58
2021/12/06 07:03:08;;;;;;;54.97;25.40;;;;;;;;;;5068051;28;20040;-56
2021/12/06 07:05:34;;;;;;;57.22;25.00;;;;;;;;;;5068842;28;20032;-58
2021/12/06 07:08:00;;;;;;;56.78;25.95;;;;;;;;;;5069964;28;20041;-58
2021/12/06 07:10:26;;;;;;;51.00;23.15;;;;;;;;;;5070788;28;20040;-58
2021/12/06 07:12:53;;;;;;;50.45;25.73;;;3.10;99.90;;;;;;5070455;28;20044;-57
2021/12/06 07:15:24;;;;;;;44.90;23.00;;;;;;;;;;5070012;28;20036;-54
2021/12/06 07:17:51;;;;;;;44.63;23.13;;;3.00;99.90;;;;;;5070774;28;20487;-58
2021/12/06 07:20:17;;;;;;;53.63;24.00;;;;;;;;;;5070387;28;20028;-57
2021/12/06 07:22:44;;;;;;;48.70;24.45;;;;;;;;;;5070451;28;20079;-57
2021/12/06 07:25:11;;;;;;;50.33;23.88;;;3.20;99.90;;;;;;5070909;28;20051;-57
2021/12/06 07:27:37;;;;;;;51.45;25.25;;;;;;;;;;5064251;28;20085;-58
2021/12/06 07:30:04;;;;;;;50.75;26.15;;;;;;;;;;5070818;28;20076;-56
2021/12/06 07:32:30;;;;;;;70.82;30.27;;;3.20;99.90;;;;;;5067327;28;20115;-58
2021/12/06 07:34:56;;;;;;;65.10;28.75;;;3.20;99.90;;;;;;5070387;28;20056;-58
2021/12/06 07:37:22;;;;;;;58.75;27.98;;;;;;;;;;5071028;28;20036;-58
2021/12/06 07:39:48;;;;;;;60.92;28.35;;;;;;;;;;5070739;28;20048;-58
2021/12/06 07:42:15;;;;;;;48.72;23.80;;;;;;;;;;5060829;28;20402;-58
2021/12/06 07:44:41;;;;;;;49.92;23.58;;;;;;;;;;5064290;28;20391;-57
2021/12/06 07:47:08;;;;;;;53.00;24.80;;;;;;;;;;5069946;28;20074;-58
2021/12/06 07:49:35;;;;;;;56.15;25.35;;;;;;;;;;5065658;28;20433;-58
2021/12/06 07:52:01;;;;;;;58.90;26.30;;;;;;;;;;5047201;28;20417;-58
2021/12/06 07:54:26;;;;;;;59.80;27.45;;;3.40;99.90;;;;;;5069616;28;20043;-58
2021/12/06 07:56:52;;;;;;;54.97;24.48;;;;;;;;;;5062901;28;20200;-57
2021/12/06 07:59:19;;;;;;;59.33;25.80;;;;;;;;;;5069435;28;20048;-58
2021/12/06 08:01:45;;;;;;;54.60;24.42;;;;;;;;;;5067894;28;20078;-57
2021/12/06 08:04:11;;;;;;;51.47;25.60;;;;;;;;;;5069313;28;20064;-57
2021/12/06 08:06:37;;;;;;;55.53;26.23;;;;;;;;;;5068966;28;20033;-57
2021/12/06 08:09:05;;;;;;;60.17;27.92;;;;;;;;;;5064936;28;20037;-57
2021/12/06 08:11:31;;;;;;;62.33;28.58;;;;;;;;;;5073865;28;20029;-57
2021/12/06 08:13:57;;;;;;;52.25;25.65;;;;;;;;;;5052353;28;20052;-57
2021/12/06 08:16:28;;;;;;;51.75;23.90;;;;;;;;;;5073444;28;20048;-55
2021/12/06 08:18:54;;;;;;;63.33;27.63;;;3.20;99.90;;;;;;5073890;28;20520;-57
2021/12/06 08:21:21;;;;;;;53.75;26.58;;;;;;;;;;5073162;28;20087;-56
2021/12/06 08:23:49;;;;;;;62.38;28.13;;;;;;;;;;5074384;28;20097;-56
2021/12/06 08:26:15;;;;;;;55.67;27.65;;;;;;;;;;5068422;28;20391;-58
2021/12/06 08:28:42;;;;;;;55.60;25.88;;;;;;;;;;5067866;28;20428;-57
2021/12/06 08:31:08;;;;;;;58.58;25.77;;;;;;;;;;5066035;28;20036;-57
2021/12/06 08:33:35;;;;;;;52.67;24.20;;;3.80;99.90;;;;;;5070295;28;20068;-57
2021/12/06 08:36:01;;;;;;;67.88;28.92;;;;;;;;;;5073622;28;20461;-57
2021/12/06 08:38:30;;;;;;;57.55;26.88;;;3.90;99.90;;;;;;5073043;28;20071;-57
2021/12/06 08:40:58;;;;;;;66.72;29.33;;;;;;;;;;5073330;28;20579;-57
2021/12/06 08:43:25;;;;;;;54.70;26.27;;;;;;;;;;5073396;28;20040;-57
2021/12/06 08:45:55;;;;;;;50.67;24.65;;;;;;;;;;5071091;28;20487;-57
2021/12/06 08:48:24;;;;;;;53.95;24.10;;;3.60;99.90;;;;;;5071472;28;20471;-57
2021/12/06 08:50:52;;;;;;;58.28;25.45;;;3.40;99.90;;;;;;5065981;28;20478;-57
2021/12/06 08:53:18;;;;;;;49.65;24.52;;;;;;;;;;5064628;28;20037;-57
2021/12/06 08:55:44;;;;;;;59.78;24.75;;;;;;;;;;5073206;28;20070;-58
2021/12/06 08:58:10;;;;;;;53.92;24.42;;;3.40;99.90;;;;;;5065020;28;20051;-56
2021/12/06 09:00:37;;;;;;;56.50;25.95;;;3.50;99.90;;;;;;5073519;28;20033;-55
2021/12/06 09:03:04;;;;;;;59.17;26.83;;;3.40;99.90;;;;;;5072848;28;20044;-57
2021/12/06 09:05:40;;;;;;;64.47;28.70;;;3.30;99.90;;;;;;5073034;28;20041;-56
2021/12/06 09:08:06;;;;;;;65.07;29.13;;;;;;;;;;5072184;28;20040;-57
2021/12/06 09:10:32;;;;;;;65.32;27.75;;;;;;;;;;5069485;28;20082;-56
2021/12/06 09:12:58;;;;;;;72.32;29.52;;;;;;;;;;5073198;28;20052;-56
2021/12/06 09:15:25;;;;;;;72.45;31.27;;;;;;;;;;5072681;28;20055;-57
2021/12/06 09:17:53;;;;;;;87.07;30.95;;;;;;;;;;5069654;28;20049;-57
2021/12/06 09:20:20;;;;;;;79.15;31.65;;;;;;;;;;5069026;28;20037;-57
2021/12/06 09:22:47;;;;;;;82.60;30.83;;;3.50;99.90;;;;;;5071753;28;20037;-58
2021/12/06 09:25:15;;;;;;;83.85;31.42;;;;;;;;;;5072506;28;20037;-57
2021/12/06 09:27:42;;;;;;;84.38;30.92;;;;;;;;;;5066171;28;20063;-56
2021/12/06 09:30:10;;;;;;;75.38;30.65;;;;;;;;;;5072782;28;20093;-57
2021/12/06 09:32:36;;;;;;;81.85;31.20;;;;;;;;;;5070220;28;20181;-56
2021/12/06 09:35:04;;;;;;;91.07;32.75;;;4.00;99.90;;;;;;5071822;28;20043;-57
2021/12/06 09:37:30;;;;;;;97.65;35.63;;;3.50;99.90;;;;;;5064013;28;20041;-57
2021/12/06 09:39:57;;;;;;;105.63;35.95;;;;;;;;;;5068087;28;20173;-57
2021/12/06 09:42:23;;;;;;;77.45;31.20;;;;;;;;;;5069345;28;20056;-57
2021/12/06 09:44:49;;;;;;;89.53;34.88;;;;;;;;;;5070109;28;20119;-54
2021/12/06 09:47:16;;;;;;;97.50;33.63;;;;;;;;;;5072657;28;20037;-57
2021/12/06 09:49:42;;;;;;;85.78;33.50;;;;;;;;;;5072201;28;20032;-53
2021/12/06 09:52:09;;;;;;;102.85;35.78;;;;;;;;;;5063771;28;20044;-57
2021/12/06 09:54:38;;;;;;;99.22;33.80;;;;;;;;;;5072227;28;20048;-57
2021/12/06 09:57:06;;;;;;;94.72;33.92;;;;;;;;;;5071866;28;20047;-56
2021/12/06 09:59:34;;;;;;;91.25;34.38;;;;;;;;;;5071914;28;20036;-56
2021/12/06 10:02:05;;;;;;;81.68;32.72;;;3.80;99.90;;;;;;5072065;28;20491;-57
2021/12/06 10:04:34;;;;;;;79.78;32.88;;;;;;;;;;5066181;28;20040;-57
2021/12/06 10:07:01;;;;;;;92.05;33.55;;;;;;;;;;5072144;28;20079;-57
2021/12/06 10:09:27;;;;;;;81.28;31.77;;;;;;;;;;5072040;28;20060;-57
2021/12/06 10:11:55;;;;;;;86.57;33.00;;;;;;;;;;5071588;28;20059;-56
2021/12/06 10:14:21;;;;;;;91.30;36.30;;;;;;;;;;5071771;28;20042;-56
2021/12/06 10:16:48;;;;;;;79.40;29.50;;;;;;;;;;5070760;28;20068;-57
2021/12/06 10:19:15;;;;;;;80.05;32.95;;;;;;;;;;5071946;28;20110;-56
2021/12/06 10:21:41;;;;;;;79.88;33.45;;;;;;;;;;5071283;28;20032;-55
2021/12/06 10:24:10;;;;;;;93.65;35.58;;;;;;;;;;5071297;28;20075;-56
2021/12/06 10:26:36;;;;;;;84.18;31.15;;;;;;;;;;5071443;28;20128;-57
2021/12/06 10:29:05;;;;;;;92.63;33.50;;;;;;;;;;5066978;28;20083;-56
2021/12/06 10:31:32;;;;;;;83.60;31.65;;;;;;;;;;5055558;28;20047;-54
2021/12/06 10:33:58;;;;;;;91.05;34.17;;;;;;;;;;5063185;28;20057;-57
2021/12/06 10:36:26;;;;;;;80.80;31.77;;;;;;;;;;5070498;28;20040;-57
2021/12/06 10:38:53;;;;;;;74.25;30.88;;;;;;;;;;5071469;28;20094;-56
2021/12/06 10:41:29;;;;;;;78.57;32.70;;;;;;;;;;5063606;28;20055;-56
2021/12/06 10:44:00;;;;;;;77.43;32.33;;;;;;;;;;5071571;28;20049;-57
2021/12/06 10:46:28;;;;;;;74.68;31.00;;;3.90;99.90;;;;;;5062274;28;20060;-58
2021/12/06 10:49:02;;;;;;;66.47;29.63;;;;;;;;;;5067432;28;20411;-57
2021/12/06 10:51:28;;;;;;;65.30;27.55;;;4.30;99.90;;;;;;5063287;28;20067;-56
2021/12/06 10:54:08;;;;;;;64.65;29.23;;;3.90;99.90;;;;;;5071276;28;20044;-58
2021/12/06 10:56:42;;;;;;;68.18;30.50;;;;;;;;;;5070541;28;20040;-57
2021/12/06 10:59:12;;;;;;;67.68;29.02;;;;;;;;;;5068312;28;20082;-57
2021/12/06 11:01:39;;;;;;;70.65;28.15;;;;;;;;;;5070178;28;20044;-55
2021/12/06 11:04:07;;;;;;;69.93;31.17;;;;;;;;;;5070863;28;20076;-57
2021/12/06 11:06:41;;;;;;;67.50;30.10;;;;;;;;;;5068351;28;20049;-57
2021/12/06 11:09:07;;;;;;;72.38;28.88;;;;;;;;;;5070800;28;20079;-57
2021/12/06 11:11:35;;;;;;;66.10;29.25;;;;;;;;;;5070039;28;20423;-57
2021/12/06 11:14:05;;;;;;;56.22;24.88;;;;;;;;;;5070013;28;20182;-58
2021/12/06 11:16:36;;;;;;;56.13;24.67;;;;;;;;;;5069130;28;20036;-57
2021/12/06 11:19:04;;;;;;;56.10;25.35;;;3.60;99.90;;;;;;5069889;28;20045;-57
2021/12/06 11:21:33;;;;;;;58.72;25.60;;;;;;;;;;5069240;28;20394;-58
2021/12/06 11:24:05;;;;;;;54.28;26.40;;;;;;;;;;5068535;28;20040;-57
2021/12/06 11:26:32;;;;;;;59.13;24.88;;;;;;;;;;5066201;28;20113;-57
2021/12/06 11:29:05;;;;;;;49.78;23.38;;;;;;;;;;5059556;28;20051;-57
2021/12/06 11:31:31;;;;;;;51.80;21.65;;;;;;;;;;5067881;28;20118;-57
2021/12/06 11:33:59;;;;;;;49.05;22.48;;;;;;;;;;5069058;28;20059;-58
2021/12/06 11:36:27;;;;;;;56.78;26.30;;;;;;;;;;5062120;28;20041;-57
2021/12/06 11:39:19;;;;;;;58.92;26.58;;;3.90;99.90;;;;;;5070588;28;20056;-57
2021/12/06 11:41:48;;;;;;;57.45;24.88;;;;;;;;;;5065345;28;20125;-58
2021/12/06 11:44:20;;;;;;;65.40;27.95;;;;;;;;;;5065295;28;20048;-57
2021/12/06 11:46:46;;;;;;;60.08;25.48;;;2.90;99.90;;;;;;5068173;28;20098;-57
2021/12/06 11:49:18;;;;;;;65.03;26.75;;;3.80;99.90;;;;;;5073656;28;20068;-57
2021/12/06 11:51:45;;;;;;;63.58;27.17;;;;;;;;;;5073622;28;20120;-57
2021/12/06 11:54:11;;;;;;;61.25;26.10;;;3.40;99.90;;;;;;5074484;28;20524;-57
2021/12/06 11:56:43;;;;;;;61.03;24.38;;;;;;;;;;5074343;28;20044;-57
2021/12/06 11:59:10;;;;;;;57.90;25.25;;;3.50;99.90;;;;;;5072647;28;20064;-57
2021/12/06 12:01:40;;;;;;;62.90;26.80;;;;;;;;;;5073894;28;20114;-57
2021/12/06 12:04:15;;;;;;;69.90;28.63;;;;;;;;;;5072531;28;20052;-56
2021/12/06 12:06:58;;;;;;;56.47;24.92;;;3.10;99.90;;;;;;5074232;28;20067;-57
2021/12/06 12:09:28;;;;;;;66.93;25.88;;;;;;;;;;5074249;28;20032;-57
2021/12/06 12:12:00;;;;;;;61.55;26.27;;;;;;;;;;5058458;28;20044;-57
2021/12/06 12:14:39;;;;;;;66.53;27.23;;;4.20;99.90;;;;;;5065562;28;20052;-57
2021/12/06 12:17:26;;;;;;;70.40;27.88;;;;;;;;;;5045851;28;20066;-59
2021/12/06 12:19:54;;;;;;;69.43;28.77;;;;;;;;;;5073609;28;20435;-57
2021/12/06 12:22:21;;;;;;;67.85;28.10;;;;;;;;;;5069682;22;20045;-56
2021/12/06 12:24:51;;;;;;;65.80;29.00;;;;;;;;;;5039151;28;20033;-57
2021/12/06 12:29:48;;;;;;;78.22;30.70;;;;;;;;;;5048790;28;20045;-57
2021/12/06 12:32:16;;;;;;;76.72;31.30;;;3.60;99.90;;;;;;5053224;28;20036;-57
2021/12/06 12:34:44;;;;;;;80.18;30.95;;;;;;;;;;5039319;28;20034;-56
2021/12/06 12:37:11;;;;;;;68.32;28.48;;;;;;;;;;5050253;28;20080;-56
2021/12/06 12:39:37;;;;;;;77.50;32.08;;;;;;;;;;5038494;28;20080;-55
2021/12/06 12:42:05;;;;;;;68.63;29.05;;;;;;;;;;5053261;28;20091;-56
2021/12/06 12:44:46;;;;;;;63.53;28.08;;;4.30;99.90;;;;;;5040764;28;20045;-57
2021/12/06 12:47:14;;;;;;;78.45;31.10;;;;;;;;;;5035339;28;20048;-56
2021/12/06 12:49:44;;;;;;;77.40;31.02;;;;;;;;;;5051841;28;20124;-57
2021/12/06 12:52:10;;;;;;;77.90;31.75;;;;;;;;;;5039682;28;20033;-56
2021/12/06 12:54:35;;;;;;;81.40;32.25;;;3.70;99.90;;;;;;5044851;28;20033;-57
2021/12/06 12:57:04;;;;;;;88.50;32.88;;;;;;;;;;5036807;28;20044;-57
2021/12/06 12:59:35;;;;;;;82.13;33.15;;;;;;;;;;5045247;28;20037;-57
2021/12/06 13:02:20;;;;;;;79.85;34.03;;;;;;;;;;5035414;28;20084;-57
2021/12/06 13:05:12;;;;;;;77.18;33.03;;;;;;;;;;5039486;28;20112;-57
2021/12/06 13:07:38;;;;;;;80.60;33.65;;;3.80;99.90;;;;;;5037218;28;20073;-57
2021/12/06 13:10:22;;;;;;;80.03;32.65;;;4.40;99.90;;;;;;5043786;28;20088;-57
2021/12/06 13:12:57;;;;;;;86.97;36.28;;;;;;;;;;5049176;28;20041;-57
2021/12/06 13:15:33;;;;;;;76.07;32.38;;;;;;;;;;5048888;28;20029;-56
2021/12/06 13:17:59;;;;;;;70.65;31.75;;;;;;;;;;5036508;28;20128;-56
2021/12/06 13:20:26;;;;;;;76.35;32.88;;;;;;;;;;5052947;28;20041;-57
2021/12/06 13:22:54;;;;;;;69.18;31.40;;;;;;;;;;5044113;28;20037;-56
2021/12/06 13:25:28;;;;;;;72.85;31.13;;;4.40;99.90;;;;;;5051974;28;20120;-57
2021/12/06 13:28:10;;;;;;;69.70;29.25;;;;;;;;;;5039291;28;20133;-55
2021/12/06 13:30:49;;;;;;;68.25;30.98;;;3.40;99.90;;;;;;5039233;28;20037;-57
2021/12/06 13:33:19;;;;;;;71.25;30.17;;;;;;;;;;5037396;28;20042;-57
2021/12/06 13:35:47;;;;;;;70.68;30.98;;;;;;;;;;5038443;28;20045;-56
2021/12/06 13:38:28;;;;;;;74.22;32.35;;;4.00;99.90;;;;;;5052243;28;20037;-55
2021/12/06 13:40:56;;;;;;;72.45;32.45;;;4.20;99.90;;;;;;5036279;28;20064;-57
2021/12/06 13:43:27;;;;;;;66.22;32.33;;;;;;;;;;5048877;28;20088;-56
2021/12/06 13:45:55;;;;;;;63.53;29.85;;;;;;;;;;5039887;28;20042;-57
2021/12/06 13:48:24;;;;;;;73.07;32.88;;;;;;;;;;5040500;28;20116;-57
2021/12/06 13:50:51;;;;;;;69.35;32.28;;;;;;;;;;5045027;28;20072;-57
2021/12/06 13:53:25;;;;;;;73.00;34.78;;;;;;;;;;5037633;28;20041;-57
2021/12/06 13:55:53;;;;;;;74.93;33.22;;;;;;;;;;5046233;28;20079;-57
2021/12/06 13:58:19;;;;;;;73.60;33.22;;;;;;;;;;5037243;28;20040;-57
2021/12/06 14:00:46;;;;;;;73.20;33.70;;;;;;;;;;5051624;28;20052;-57
2021/12/06 14:03:17;;;;;;;70.95;32.85;;;;;;;;;;5044212;28;20044;-57
2021/12/06 14:05:45;;;;;;;69.75;33.05;;;;;;;;;;5039294;28;20041;-57
2021/12/06 14:08:20;;;;;;;63.13;30.75;;;4.30;99.90;;;;;;5048396;28;20036;-55
2021/12/06 14:10:46;;;;;;;;;;;;;;;;;;5042943;28;20068;-54
2021/12/06 14:13:12;;;;;;;57.35;29.38;;;;;;;;;;5042362;28;19964;-55